sensor_id;sensor_type;location;lat;lon;timestamp;pressure;altitude;pressure_sealevel;temperature;humidity
12146;BME280;6136;47.032;15.398;2023-03-18T00:01:52;97531.75;;;1.64;74.98
12146;BME280;6136;47.032;15.398;2023-03-18T00:04:20;97544.75;;;1.67;75.53
12146;BME280;6136;47.032;15.398;2023-03-18T00:06:50;97540.47;;;1.65;75.57
12146;BME280;6136;47.032;15.398;2023-03-18T00:09:18;97541.50;;;1.59;75.50
12146;BME280;6136;47.032;15.398;2023-03-18T00:11:46;97545.00;;;1.58;75.81
12146;BME280;6136;47.032;15.398;2023-03-18T00:14:15;97538.88;;;1.59;76.01
12146;BME280;6136;47.032;15.398;2023-03-18T00:16:44;97538.41;;;1.45;76.41
12146;BME280;6136;47.032;15.398;2023-03-18T00:19:13;97536.16;;;1.31;77.16
12146;BME280;6136;47.032;15.398;2023-03-18T00:21:41;97534.91;;;1.12;77.03
12146;BME280;6136;47.032;15.398;2023-03-18T00:24:09;97540.53;;;1.31;77.17
12146;BME280;6136;47.032;15.398;2023-03-18T00:26:38;97542.22;;;1.32;77.77
12146;BME280;6136;47.032;15.398;2023-03-18T00:29:06;97539.47;;;1.38;77.08
12146;BME280;6136;47.032;15.398;2023-03-18T00:31:34;97542.22;;;1.32;77.20
12146;BME280;6136;47.032;15.398;2023-03-18T00:34:05;97522.16;;;1.34;77.87
12146;BME280;6136;47.032;15.398;2023-03-18T00:36:34;97536.25;;;1.27;77.35
12146;BME280;6136;47.032;15.398;2023-03-18T00:39:03;97534.59;;;1.24;77.59
12146;BME280;6136;47.032;15.398;2023-03-18T00:41:31;97534.50;;;1.27;77.62
12146;BME280;6136;47.032;15.398;2023-03-18T00:44:02;97532.91;;;1.22;78.20
12146;BME280;6136;47.032;15.398;2023-03-18T00:46:31;97533.00;;;1.19;78.34
12146;BME280;6136;47.032;15.398;2023-03-18T00:49:01;97526.34;;;1.07;78.85
12146;BME280;6136;47.032;15.398;2023-03-18T00:51:33;97528.03;;;1.09;78.43
12146;BME280;6136;47.032;15.398;2023-03-18T00:54:04;97538.66;;;1.02;78.80
12146;BME280;6136;47.032;15.398;2023-03-18T00:56:34;97540.38;;;1.03;79.31
12146;BME280;6136;47.032;15.398;2023-03-18T00:59:04;97525.63;;;1.00;79.79
12146;BME280;6136;47.032;15.398;2023-03-18T01:01:33;97528.25;;;1.00;79.26
12146;BME280;6136;47.032;15.398;2023-03-18T01:04:01;97525.63;;;1.00;79.12
12146;BME280;6136;47.032;15.398;2023-03-18T01:06:34;97522.13;;;1.01;79.56
12146;BME280;6136;47.032;15.398;2023-03-18T01:09:04;97509.16;;;0.98;80.15
12146;BME280;6136;47.032;15.398;2023-03-18T01:11:32;97509.13;;;1.00;79.84
12146;BME280;6136;47.032;15.398;2023-03-18T01:14:01;97513.63;;;0.95;80.22
12146;BME280;6136;47.032;15.398;2023-03-18T01:16:29;97511.88;;;0.95;79.81
12146;BME280;6136;47.032;15.398;2023-03-18T01:18:58;97518.84;;;0.93;80.10
12146;BME280;6136;47.032;15.398;2023-03-18T01:21:26;97512.78;;;0.93;79.89
12146;BME280;6136;47.032;15.398;2023-03-18T01:23:59;97502.59;;;0.82;80.07
12146;BME280;6136;47.032;15.398;2023-03-18T01:26:28;97512.09;;;0.86;80.85
12146;BME280;6136;47.032;15.398;2023-03-18T01:28:58;97514.66;;;0.88;80.59
12146;BME280;6136;47.032;15.398;2023-03-18T01:31:28;97512.97;;;0.85;81.22
12146;BME280;6136;47.032;15.398;2023-03-18T01:34:02;97506.94;;;0.83;81.21
12146;BME280;6136;47.032;15.398;2023-03-18T01:36:40;97513.97;;;0.81;81.03
12146;BME280;6136;47.032;15.398;2023-03-18T01:39:10;97504.56;;;0.74;81.53
12146;BME280;6136;47.032;15.398;2023-03-18T01:41:38;97502.25;;;0.62;81.29
12146;BME280;6136;47.032;15.398;2023-03-18T01:44:13;97504.69;;;0.68;82.14
12146;BME280;6136;47.032;15.398;2023-03-18T01:46:45;97514.31;;;0.66;82.21
12146;BME280;6136;47.032;15.398;2023-03-18T01:49:17;97502.34;;;0.59;82.41
12146;BME280;6136;47.032;15.398;2023-03-18T01:51:49;97509.47;;;0.51;82.56
12146;BME280;6136;47.032;15.398;2023-03-18T01:54:21;97509.47;;;0.51;82.73
12146;BME280;6136;47.032;15.398;2023-03-18T01:56:51;97510.34;;;0.51;82.89
12146;BME280;6136;47.032;15.398;2023-03-18T01:59:21;97507.66;;;0.53;82.91
12146;BME280;6136;47.032;15.398;2023-03-18T02:01:55;97506.00;;;0.50;82.38
12146;BME280;6136;47.032;15.398;2023-03-18T02:04:34;97507.66;;;0.53;82.52
12146;BME280;6136;47.032;15.398;2023-03-18T02:07:05;97509.66;;;0.43;82.39
12146;BME280;6136;47.032;15.398;2023-03-18T02:09:35;97515.81;;;0.39;82.85
12146;BME280;6136;47.032;15.398;2023-03-18T02:12:05;97511.41;;;0.43;82.63
12146;BME280;6136;47.032;15.398;2023-03-18T02:14:35;97507.97;;;0.41;82.80
12146;BME280;6136;47.032;15.398;2023-03-18T02:17:08;97489.13;;;0.29;82.94
12146;BME280;6136;47.032;15.398;2023-03-18T02:19:55;97514.91;;;0.42;82.86
12146;BME280;6136;47.032;15.398;2023-03-18T02:22:28;97513.28;;;0.36;83.35
12146;BME280;6136;47.032;15.398;2023-03-18T02:25:15;97510.63;;;0.37;83.42
12146;BME280;6136;47.032;15.398;2023-03-18T02:27:51;97520.25;;;0.35;83.58
12146;BME280;6136;47.032;15.398;2023-03-18T02:30:24;97522.84;;;0.35;83.78
12146;BME280;6136;47.032;15.398;2023-03-18T02:32:55;97518.53;;;0.34;83.66
12146;BME280;6136;47.032;15.398;2023-03-18T02:35:26;97519.41;;;0.33;84.10
12146;BME280;6136;47.032;15.398;2023-03-18T02:37:57;97510.75;;;0.33;84.19
12146;BME280;6136;47.032;15.398;2023-03-18T02:40:27;97512.50;;;0.32;83.67
12146;BME280;6136;47.032;15.398;2023-03-18T02:43:14;97517.72;;;0.31;83.70
12146;BME280;6136;47.032;15.398;2023-03-18T02:45:54;97509.19;;;0.24;84.47
12146;BME280;6136;47.032;15.398;2023-03-18T02:48:33;97511.66;;;0.30;83.93
12146;BME280;6136;47.032;15.398;2023-03-18T02:51:02;97511.75;;;0.27;83.98
12146;BME280;6136;47.032;15.398;2023-03-18T02:53:31;97508.38;;;0.22;84.33
12146;BME280;6136;47.032;15.398;2023-03-18T02:56:00;97507.56;;;0.20;84.31
12146;BME280;6136;47.032;15.398;2023-03-18T02:58:30;97514.44;;;0.23;84.25
12146;BME280;6136;47.032;15.398;2023-03-18T03:01:00;97508.38;;;0.22;84.49
12146;BME280;6136;47.032;15.398;2023-03-18T03:03:29;97502.50;;;0.14;84.97
12146;BME280;6136;47.032;15.398;2023-03-18T03:05:57;97506.59;;;0.24;84.62
12146;BME280;6136;47.032;15.398;2023-03-18T03:08:26;97508.44;;;0.19;84.57
12146;BME280;6136;47.032;15.398;2023-03-18T03:10:55;97508.50;;;0.16;85.03
12146;BME280;6136;47.032;15.398;2023-03-18T03:13:23;97514.56;;;0.17;85.24
12146;BME280;6136;47.032;15.398;2023-03-18T03:15:53;97516.28;;;0.18;84.42
12146;BME280;6136;47.032;15.398;2023-03-18T03:18:22;97511.13;;;0.16;85.10
12146;BME280;6136;47.032;15.398;2023-03-18T03:20:50;97522.41;;;0.15;84.92
12146;BME280;6136;47.032;15.398;2023-03-18T03:23:19;97518.94;;;0.16;84.78
12146;BME280;6136;47.032;15.398;2023-03-18T03:25:47;97519.81;;;0.15;85.14
12146;BME280;6136;47.032;15.398;2023-03-18T03:28:18;97520.75;;;0.13;85.04
12146;BME280;6136;47.032;15.398;2023-03-18T03:30:47;97524.22;;;0.13;85.24
12146;BME280;6136;47.032;15.398;2023-03-18T03:33:16;97526.88;;;0.10;85.12
12146;BME280;6136;47.032;15.398;2023-03-18T03:35:44;97512.22;;;0.06;85.50
12146;BME280;6136;47.032;15.398;2023-03-18T03:38:13;97527.78;;;0.08;85.47
12146;BME280;6136;47.032;15.398;2023-03-18T03:40:42;97532.19;;;0.06;85.58
12146;BME280;6136;47.032;15.398;2023-03-18T03:43:11;97539.22;;;0.02;85.46
12146;BME280;6136;47.032;15.398;2023-03-18T03:45:40;97538.41;;;0.00;85.43
12146;BME280;6136;47.032;15.398;2023-03-18T03:48:09;97536.59;;;0.02;85.70
12146;BME280;6136;47.032;15.398;2023-03-18T03:50:40;97536.59;;;0.02;85.72
12146;BME280;6136;47.032;15.398;2023-03-18T03:53:08;97536.63;;;0.00;85.20
12146;BME280;6136;47.032;15.398;2023-03-18T03:55:37;97539.38;;;-0.06;85.35
12146;BME280;6136;47.032;15.398;2023-03-18T03:58:05;97539.69;;;-0.21;85.83
12146;BME280;6136;47.032;15.398;2023-03-18T04:00:34;97540.84;;;-0.35;86.39
12146;BME280;6136;47.032;15.398;2023-03-18T04:03:02;97536.44;;;-0.32;86.79
12146;BME280;6136;47.032;15.398;2023-03-18T04:05:31;97535.50;;;-0.28;86.67
12146;BME280;6136;47.032;15.398;2023-03-18T04:08:01;97541.56;;;-0.29;86.38
12146;BME280;6136;47.032;15.398;2023-03-18T04:10:36;97547.66;;;-0.28;86.18
12146;BME280;6136;47.032;15.398;2023-03-18T04:13:08;97544.09;;;-0.24;86.34
12146;BME280;6136;47.032;15.398;2023-03-18T04:15:38;97546.75;;;-0.26;86.80
12146;BME280;6136;47.032;15.398;2023-03-18T04:18:10;97538.91;;;-0.24;86.54
12146;BME280;6136;47.032;15.398;2023-03-18T04:20:40;97543.22;;;-0.23;86.12
12146;BME280;6136;47.032;15.398;2023-03-18T04:23:18;97545.09;;;-0.30;86.40
12146;BME280;6136;47.032;15.398;2023-03-18T04:25:46;97545.91;;;-0.28;86.69
12146;BME280;6136;47.032;15.398;2023-03-18T04:28:15;97541.66;;;-0.32;86.05
12146;BME280;6136;47.032;15.398;2023-03-18T04:30:43;97545.16;;;-0.33;86.77
12146;BME280;6136;47.032;15.398;2023-03-18T04:33:15;97545.28;;;-0.39;86.99
12146;BME280;6136;47.032;15.398;2023-03-18T04:35:44;97546.19;;;-0.42;87.15
12146;BME280;6136;47.032;15.398;2023-03-18T04:38:14;97544.47;;;-0.44;87.02
12146;BME280;6136;47.032;15.398;2023-03-18T04:40:43;97547.06;;;-0.43;87.32
12146;BME280;6136;47.032;15.398;2023-03-18T04:43:12;97552.13;;;-0.35;87.11
12146;BME280;6136;47.032;15.398;2023-03-18T04:45:40;97542.66;;;-0.39;87.08
12146;BME280;6136;47.032;15.398;2023-03-18T04:48:09;97544.28;;;-0.33;87.81
12146;BME280;6136;47.032;15.398;2023-03-18T04:50:40;97539.50;;;-0.55;86.77
12146;BME280;6136;47.032;15.398;2023-03-18T04:53:13;97558.47;;;-0.50;87.35
12146;BME280;6136;47.032;15.398;2023-03-18T04:55:44;97555.81;;;-0.47;87.84
12146;BME280;6136;47.032;15.398;2023-03-18T04:58:14;97555.00;;;-0.49;87.91
12146;BME280;6136;47.032;15.398;2023-03-18T05:00:54;97542.94;;;-0.53;87.81
12146;BME280;6136;47.032;15.398;2023-03-18T05:03:29;97554.84;;;-0.41;87.55
12146;BME280;6136;47.032;15.398;2023-03-18T05:05:57;97566.25;;;-0.48;87.63
12146;BME280;6136;47.032;15.398;2023-03-18T05:08:35;97568.91;;;-0.51;87.21
12146;BME280;6136;47.032;15.398;2023-03-18T05:11:04;97567.41;;;-0.63;87.55
12146;BME280;6136;47.032;15.398;2023-03-18T05:13:35;97572.50;;;-0.58;88.05
12146;BME280;6136;47.032;15.398;2023-03-18T05:16:04;97579.44;;;-0.57;88.01
12146;BME280;6136;47.032;15.398;2023-03-18T05:18:35;97577.66;;;-0.54;87.96
12146;BME280;6136;47.032;15.398;2023-03-18T05:21:04;97578.41;;;-0.49;87.89
12146;BME280;6136;47.032;15.398;2023-03-18T05:23:34;97576.69;;;-0.50;87.38
12146;BME280;6136;47.032;15.398;2023-03-18T05:26:04;97583.66;;;-0.52;87.52
12146;BME280;6136;47.032;15.398;2023-03-18T05:28:33;97581.84;;;-0.47;86.90
12146;BME280;6136;47.032;15.398;2023-03-18T05:31:12;97585.97;;;-0.36;87.49
12146;BME280;6136;47.032;15.398;2023-03-18T05:33:42;97582.47;;;-0.34;86.81
12146;BME280;6136;47.032;15.398;2023-03-18T05:36:12;97587.50;;;-0.23;86.61
12146;BME280;6136;47.032;15.398;2023-03-18T05:38:52;97582.16;;;-0.17;86.07
12146;BME280;6136;47.032;15.398;2023-03-18T05:41:22;97586.28;;;-0.07;85.91
12146;BME280;6136;47.032;15.398;2023-03-18T05:43:51;97569.56;;;0.05;86.05
12146;BME280;6136;47.032;15.398;2023-03-18T05:46:19;97588.22;;;0.25;86.27
12146;BME280;6136;47.032;15.398;2023-03-18T05:49:05;97577.50;;;0.38;85.49
12146;BME280;6136;47.032;15.398;2023-03-18T05:51:44;97594.53;;;0.55;85.41
12146;BME280;6136;47.032;15.398;2023-03-18T05:54:23;97587.69;;;0.51;84.95
12146;BME280;6136;47.032;15.398;2023-03-18T05:56:52;97591.03;;;0.56;84.63
12146;BME280;6136;47.032;15.398;2023-03-18T05:59:21;97591.53;;;0.73;83.89
12146;BME280;6136;47.032;15.398;2023-03-18T06:01:55;97597.16;;;0.92;83.46
12146;BME280;6136;47.032;15.398;2023-03-18T06:04:24;97594.97;;;1.10;83.27
12146;BME280;6136;47.032;15.398;2023-03-18T06:06:53;97592.63;;;1.34;81.79
12146;BME280;6136;47.032;15.398;2023-03-18T06:09:23;97595.00;;;1.43;81.47
12146;BME280;6136;47.032;15.398;2023-03-18T06:11:54;97598.78;;;1.65;80.67
12146;BME280;6136;47.032;15.398;2023-03-18T06:14:24;97589.56;;;1.84;79.75
12146;BME280;6136;47.032;15.398;2023-03-18T06:16:58;97584.69;;;2.03;79.20
12146;BME280;6136;47.032;15.398;2023-03-18T06:19:27;97582.44;;;2.20;78.91
12146;BME280;6136;47.032;15.398;2023-03-18T06:21:56;97596.56;;;2.44;77.55
12146;BME280;6136;47.032;15.398;2023-03-18T06:24:25;97594.66;;;2.49;76.60
12146;BME280;6136;47.032;15.398;2023-03-18T06:26:56;97604.75;;;2.61;76.27
12146;BME280;6136;47.032;15.398;2023-03-18T06:29:24;97600.03;;;2.74;75.38
12146;BME280;6136;47.032;15.398;2023-03-18T06:31:56;97606.81;;;2.80;74.94
12146;BME280;6136;47.032;15.398;2023-03-18T06:34:25;97610.50;;;2.74;75.37
12146;BME280;6136;47.032;15.398;2023-03-18T06:36:54;97612.38;;;2.97;74.34
12146;BME280;6136;47.032;15.398;2023-03-18T06:39:24;97611.50;;;3.24;72.72
12146;BME280;6136;47.032;15.398;2023-03-18T06:41:55;97620.25;;;3.49;72.46
12146;BME280;6136;47.032;15.398;2023-03-18T06:44:44;97622.97;;;3.73;70.88
12146;BME280;6136;47.032;15.398;2023-03-18T06:47:22;97624.31;;;3.84;69.39
12146;BME280;6136;47.032;15.398;2023-03-18T06:49:53;97622.75;;;4.04;68.97
12146;BME280;6136;47.032;15.398;2023-03-18T06:52:29;97620.41;;;4.44;69.44
12146;BME280;6136;47.032;15.398;2023-03-18T06:55:04;97634.03;;;4.77;66.83
12146;BME280;6136;47.032;15.398;2023-03-18T06:57:38;97623.19;;;5.08;64.76
12146;BME280;6136;47.032;15.398;2023-03-18T07:00:08;97621.91;;;6.22;62.04
12146;BME280;6136;47.032;15.398;2023-03-18T07:02:36;97625.81;;;7.98;56.21
12146;BME280;6136;47.032;15.398;2023-03-18T07:05:08;97612.53;;;9.61;50.49
12146;BME280;6136;47.032;15.398;2023-03-18T07:07:39;97613.34;;;10.37;47.27
12146;BME280;6136;47.032;15.398;2023-03-18T07:10:12;97616.25;;;10.33;46.79
12146;BME280;6136;47.032;15.398;2023-03-18T07:12:42;97618.00;;;10.18;46.18
12146;BME280;6136;47.032;15.398;2023-03-18T07:15:11;97624.66;;;10.25;46.77
12146;BME280;6136;47.032;15.398;2023-03-18T07:17:39;97623.72;;;10.97;45.65
12146;BME280;6136;47.032;15.398;2023-03-18T07:20:09;97619.25;;;11.80;42.61
12146;BME280;6136;47.032;15.398;2023-03-18T07:22:37;97618.50;;;11.51;41.86
12146;BME280;6136;47.032;15.398;2023-03-18T07:25:06;97622.16;;;11.21;43.01
12146;BME280;6136;47.032;15.398;2023-03-18T07:27:35;97618.38;;;11.25;42.79
12146;BME280;6136;47.032;15.398;2023-03-18T07:30:06;97625.03;;;11.04;42.90
12146;BME280;6136;47.032;15.398;2023-03-18T07:32:35;97631.34;;;11.30;41.66
12146;BME280;6136;47.032;15.398;2023-03-18T07:35:05;97626.72;;;11.87;40.76
12146;BME280;6136;47.032;15.398;2023-03-18T07:37:33;97631.53;;;12.72;39.12
12146;BME280;6136;47.032;15.398;2023-03-18T07:40:02;97622.34;;;14.33;36.67
12146;BME280;6136;47.032;15.398;2023-03-18T07:42:31;97631.56;;;14.06;36.10
12146;BME280;6136;47.032;15.398;2023-03-18T07:45:00;97637.34;;;13.52;36.03
12146;BME280;6136;47.032;15.398;2023-03-18T07:47:29;97633.78;;;14.12;35.63
12146;BME280;6136;47.032;15.398;2023-03-18T07:49:57;97636.00;;;14.64;34.66
12146;BME280;6136;47.032;15.398;2023-03-18T07:52:25;97639.41;;;14.66;34.39
12146;BME280;6136;47.032;15.398;2023-03-18T07:54:55;97630.84;;;15.18;33.00
12146;BME280;6136;47.032;15.398;2023-03-18T07:57:23;97632.38;;;16.29;31.91
12146;BME280;6136;47.032;15.398;2023-03-18T07:59:51;97632.25;;;16.51;32.20
12146;BME280;6136;47.032;15.398;2023-03-18T08:02:20;97633.69;;;16.55;30.27
12146;BME280;6136;47.032;15.398;2023-03-18T08:04:50;97631.34;;;16.09;31.28
12146;BME280;6136;47.032;15.398;2023-03-18T08:07:19;97643.41;;;16.56;30.64
12146;BME280;6136;47.032;15.398;2023-03-18T08:09:48;97640.44;;;16.71;30.46
12146;BME280;6136;47.032;15.398;2023-03-18T08:12:17;97647.38;;;16.73;30.58
12146;BME280;6136;47.032;15.398;2023-03-18T08:14:45;97641.53;;;17.59;29.06
12146;BME280;6136;47.032;15.398;2023-03-18T08:17:15;97650.09;;;17.13;29.23
12146;BME280;6136;47.032;15.398;2023-03-18T08:19:43;97644.72;;;16.09;30.25
12146;BME280;6136;47.032;15.398;2023-03-18T08:22:14;97647.44;;;16.30;29.78
12146;BME280;6136;47.032;15.398;2023-03-18T08:24:42;97642.13;;;16.51;30.55
12146;BME280;6136;47.032;15.398;2023-03-18T08:27:11;97640.81;;;16.87;29.81
12146;BME280;6136;47.032;15.398;2023-03-18T08:29:39;97647.09;;;17.06;29.13
12146;BME280;6136;47.032;15.398;2023-03-18T08:32:08;97656.66;;;17.30;28.73
12146;BME280;6136;47.032;15.398;2023-03-18T08:34:37;97647.31;;;17.55;28.65
12146;BME280;6136;47.032;15.398;2023-03-18T08:37:05;97639.09;;;18.35;28.05
12146;BME280;6136;47.032;15.398;2023-03-18T08:39:35;97646.22;;;17.67;28.02
12146;BME280;6136;47.032;15.398;2023-03-18T08:42:04;97646.16;;;17.97;27.78
12146;BME280;6136;47.032;15.398;2023-03-18T08:44:32;97645.00;;;17.80;27.64
12146;BME280;6136;47.032;15.398;2023-03-18T08:47:00;97643.66;;;17.56;27.85
12146;BME280;6136;47.032;15.398;2023-03-18T08:49:28;97643.88;;;18.02;27.99
12146;BME280;6136;47.032;15.398;2023-03-18T08:51:57;97645.31;;;18.06;28.36
12146;BME280;6136;47.032;15.398;2023-03-18T08:54:25;97651.16;;;17.71;28.51
12146;BME280;6136;47.032;15.398;2023-03-18T08:56:55;97647.34;;;17.24;29.22
12146;BME280;6136;47.032;15.398;2023-03-18T08:59:23;97644.28;;;17.88;28.79
12146;BME280;6136;47.032;15.398;2023-03-18T09:01:52;97642.72;;;18.91;28.11
12146;BME280;6136;47.032;15.398;2023-03-18T09:04:20;97637.88;;;19.05;26.77
12146;BME280;6136;47.032;15.398;2023-03-18T09:06:48;97638.72;;;19.52;26.70
12146;BME280;6136;47.032;15.398;2023-03-18T09:09:16;97633.25;;;21.03;25.20
12146;BME280;6136;47.032;15.398;2023-03-18T09:11:44;97631.47;;;21.12;26.09
12146;BME280;6136;47.032;15.398;2023-03-18T09:14:14;97628.72;;;21.72;25.17
12146;BME280;6136;47.032;15.398;2023-03-18T09:16:43;97631.59;;;21.36;24.84
12146;BME280;6136;47.032;15.398;2023-03-18T09:19:11;97625.22;;;21.87;24.34
12146;BME280;6136;47.032;15.398;2023-03-18T09:21:40;97625.19;;;21.79;24.41
12146;BME280;6136;47.032;15.398;2023-03-18T09:24:08;97629.22;;;21.67;24.58
12146;BME280;6136;47.032;15.398;2023-03-18T09:26:37;97636.81;;;22.38;22.51
12146;BME280;6136;47.032;15.398;2023-03-18T09:29:05;97627.44;;;23.93;21.34
12146;BME280;6136;47.032;15.398;2023-03-18T09:31:35;97622.56;;;24.65;20.19
12146;BME280;6136;47.032;15.398;2023-03-18T09:34:04;97619.50;;;21.40;24.43
12146;BME280;6136;47.032;15.398;2023-03-18T09:36:32;97618.94;;;22.53;23.56
12146;BME280;6136;47.032;15.398;2023-03-18T09:39:00;97620.00;;;20.84;24.34
12146;BME280;6136;47.032;15.398;2023-03-18T09:41:40;97623.06;;;21.41;24.97
12146;BME280;6136;47.032;15.398;2023-03-18T09:44:18;97620.66;;;21.38;24.38
12146;BME280;6136;47.032;15.398;2023-03-18T09:47:01;97619.47;;;21.32;25.05
12146;BME280;6136;47.032;15.398;2023-03-18T09:49:42;97626.03;;;21.72;23.51
12146;BME280;6136;47.032;15.398;2023-03-18T09:52:18;97611.22;;;22.74;22.96
12146;BME280;6136;47.032;15.398;2023-03-18T09:54:54;97619.34;;;21.84;23.10
12146;BME280;6136;47.032;15.398;2023-03-18T09:57:26;97618.16;;;21.94;23.19
12146;BME280;6136;47.032;15.398;2023-03-18T10:00:01;97618.91;;;21.54;23.40
12146;BME280;6136;47.032;15.398;2023-03-18T10:02:40;97622.34;;;22.79;22.17
12146;BME280;6136;47.032;15.398;2023-03-18T10:05:12;97621.97;;;22.34;23.34
12146;BME280;6136;47.032;15.398;2023-03-18T10:07:43;97616.66;;;23.38;22.36
12146;BME280;6136;47.032;15.398;2023-03-18T10:10:20;97620.53;;;24.21;21.40
12146;BME280;6136;47.032;15.398;2023-03-18T10:12:56;97633.53;;;23.56;22.19
12146;BME280;6136;47.032;15.398;2023-03-18T10:15:31;97612.75;;;25.01;19.55
12146;BME280;6136;47.032;15.398;2023-03-18T10:18:10;97617.63;;;25.50;20.06
12146;BME280;6136;47.032;15.398;2023-03-18T10:20:50;97620.56;;;26.14;18.57
12146;BME280;6136;47.032;15.398;2023-03-18T10:23:26;97615.31;;;25.18;19.58
12146;BME280;6136;47.032;15.398;2023-03-18T10:26:03;97623.25;;;24.13;20.55
12146;BME280;6136;47.032;15.398;2023-03-18T10:28:42;97617.38;;;24.02;20.29
12146;BME280;6136;47.032;15.398;2023-03-18T10:31:26;97622.84;;;23.63;20.85
12146;BME280;6136;47.032;15.398;2023-03-18T10:34:01;97619.22;;;23.23;21.04
12146;BME280;6136;47.032;15.398;2023-03-18T10:36:37;97619.50;;;22.81;21.77
12146;BME280;6136;47.032;15.398;2023-03-18T10:39:12;97610.16;;;22.92;21.89
12146;BME280;6136;47.032;15.398;2023-03-18T10:41:43;97606.63;;;22.75;22.06
12146;BME280;6136;47.032;15.398;2023-03-18T10:44:19;97619.53;;;21.90;22.83
12146;BME280;6136;47.032;15.398;2023-03-18T10:46:56;97621.06;;;22.01;23.38
12146;BME280;6136;47.032;15.398;2023-03-18T10:49:28;97617.97;;;22.78;22.27
12146;BME280;6136;47.032;15.398;2023-03-18T10:52:02;97610.03;;;24.41;19.70
12146;BME280;6136;47.032;15.398;2023-03-18T10:54:35;97609.78;;;23.66;21.04
12146;BME280;6136;47.032;15.398;2023-03-18T10:57:10;97609.41;;;24.08;20.59
12146;BME280;6136;47.032;15.398;2023-03-18T10:59:40;97610.41;;;24.98;19.09
12146;BME280;6136;47.032;15.398;2023-03-18T11:02:14;97605.72;;;24.92;19.37
12146;BME280;6136;47.032;15.398;2023-03-18T11:04:51;97605.53;;;25.97;19.10
12146;BME280;6136;47.032;15.398;2023-03-18T11:07:23;97605.63;;;23.47;20.92
12146;BME280;6136;47.032;15.398;2023-03-18T11:09:53;97592.59;;;22.39;22.33
12146;BME280;6136;47.032;15.398;2023-03-18T11:12:23;97592.22;;;23.07;23.09
12146;BME280;6136;47.032;15.398;2023-03-18T11:14:53;97596.16;;;25.63;19.16
12146;BME280;6136;47.032;15.398;2023-03-18T11:17:26;97593.16;;;26.94;18.62
12146;BME280;6136;47.032;15.398;2023-03-18T11:20:05;97598.25;;;25.82;19.06
12146;BME280;6136;47.032;15.398;2023-03-18T11:22:48;97591.72;;;24.66;20.13
12146;BME280;6136;47.032;15.398;2023-03-18T11:25:20;97571.72;;;24.29;21.25
12146;BME280;6136;47.032;15.398;2023-03-18T11:27:51;97583.56;;;24.51;21.19
12146;BME280;6136;47.032;15.398;2023-03-18T11:30:21;97574.09;;;26.45;18.96
12146;BME280;6136;47.032;15.398;2023-03-18T11:33:13;97566.81;;;25.73;19.94
12146;BME280;6136;47.032;15.398;2023-03-18T11:35:45;97572.34;;;25.65;19.17
12146;BME280;6136;47.032;15.398;2023-03-18T11:38:16;97569.38;;;25.31;20.24
12146;BME280;6136;47.032;15.398;2023-03-18T11:40:45;97573.38;;;24.91;20.38
12146;BME280;6136;47.032;15.398;2023-03-18T11:43:17;97558.53;;;24.64;21.05
12146;BME280;6136;47.032;15.398;2023-03-18T11:45:52;97549.94;;;27.47;17.47
12146;BME280;6136;47.032;15.398;2023-03-18T11:48:30;97558.19;;;27.60;17.39
12146;BME280;6136;47.032;15.398;2023-03-18T11:54:03;97550.00;;;23.84;22.00
12146;BME280;6136;47.032;15.398;2023-03-18T11:56:38;97544.63;;;25.84;19.84
12146;BME280;6136;47.032;15.398;2023-03-18T12:02:28;97531.56;;;26.16;18.68
12146;BME280;6136;47.032;15.398;2023-03-18T12:05:20;97540.53;;;25.95;19.00
12146;BME280;6136;47.032;15.398;2023-03-18T12:08:05;97533.59;;;24.83;19.62
12146;BME280;6136;47.032;15.398;2023-03-18T12:10:39;97534.28;;;24.48;20.52
12146;BME280;6136;47.032;15.398;2023-03-18T12:13:27;97532.53;;;24.92;19.32
12146;BME280;6136;47.032;15.398;2023-03-18T12:16:08;97525.22;;;25.87;18.87
12146;BME280;6136;47.032;15.398;2023-03-18T12:19:02;97541.78;;;25.12;20.41
12146;BME280;6136;47.032;15.398;2023-03-18T12:21:45;97523.69;;;26.21;19.88
12146;BME280;6136;47.032;15.398;2023-03-18T12:24:32;97532.91;;;28.60;16.28
12146;BME280;6136;47.032;15.398;2023-03-18T12:27:14;97526.38;;;28.34;16.23
12146;BME280;6136;47.032;15.398;2023-03-18T12:30:00;97525.31;;;27.20;16.92
12146;BME280;6136;47.032;15.398;2023-03-18T12:32:32;97519.91;;;26.64;18.08
12146;BME280;6136;47.032;15.398;2023-03-18T12:35:19;97524.66;;;27.12;17.92
12146;BME280;6136;47.032;15.398;2023-03-18T12:38:05;97530.91;;;26.84;17.96
12146;BME280;6136;47.032;15.398;2023-03-18T12:40:43;97532.34;;;27.97;16.63
12146;BME280;6136;47.032;15.398;2023-03-18T12:43:33;97521.31;;;24.95;20.23
12146;BME280;6136;47.032;15.398;2023-03-18T12:46:09;97525.06;;;25.74;18.75
12146;BME280;6136;47.032;15.398;2023-03-18T12:48:49;97526.94;;;25.74;18.97
12146;BME280;6136;47.032;15.398;2023-03-18T12:51:23;97524.63;;;26.28;18.32
12146;BME280;6136;47.032;15.398;2023-03-18T12:53:54;97529.59;;;26.74;18.02
12146;BME280;6136;47.032;15.398;2023-03-18T12:56:27;97532.59;;;25.43;19.21
12146;BME280;6136;47.032;15.398;2023-03-18T12:59:01;97527.34;;;26.28;18.25
12146;BME280;6136;47.032;15.398;2023-03-18T13:01:34;97529.75;;;24.63;20.71
12146;BME280;6136;47.032;15.398;2023-03-18T13:04:10;97526.31;;;24.31;21.94
12146;BME280;6136;47.032;15.398;2023-03-18T13:06:43;97522.66;;;24.24;20.83
12146;BME280;6136;47.032;15.398;2023-03-18T13:09:24;97528.50;;;25.18;20.38
12146;BME280;6136;47.032;15.398;2023-03-18T13:12:01;97526.44;;;24.90;19.79
12146;BME280;6136;47.032;15.398;2023-03-18T13:14:46;97529.13;;;24.38;20.21
12146;BME280;6136;47.032;15.398;2023-03-18T13:17:21;97532.03;;;24.89;19.64
12146;BME280;6136;47.032;15.398;2023-03-18T13:19:51;97529.84;;;23.64;21.59
12146;BME280;6136;47.032;15.398;2023-03-18T13:22:46;97533.00;;;25.40;19.05
12146;BME280;6136;47.032;15.398;2023-03-18T13:25:27;97528.44;;;24.96;20.13
12146;BME280;6136;47.032;15.398;2023-03-18T13:31:02;97520.47;;;26.32;18.94
12146;BME280;6136;47.032;15.398;2023-03-18T13:33:46;97521.31;;;25.75;19.59
12146;BME280;6136;47.032;15.398;2023-03-18T13:36:26;97518.59;;;25.10;20.17
12146;BME280;6136;47.032;15.398;2023-03-18T13:39:12;97503.47;;;25.66;19.47
12146;BME280;6136;47.032;15.398;2023-03-18T13:42:06;97502.66;;;24.77;20.21